sensor_id;sensor_type;location;lat;lon;timestamp;pressure;altitude;pressure_sealevel;temperature;humidity
61742;BME280;47650;49.848;9.620;2022-08-19T00:00:21;99068.31;;;23.44;54.71
61742;BME280;47650;49.848;9.620;2022-08-19T00:02:47;99094.34;;;23.62;54.32
61742;BME280;47650;49.848;9.620;2022-08-19T00:05:14;99095.41;;;23.61;54.30
61742;BME280;47650;49.848;9.620;2022-08-19T00:07:41;99093.41;;;23.56;54.44
61742;BME280;47650;49.848;9.620;2022-08-19T00:10:09;99090.94;;;23.55;54.34
61742;BME280;47650;49.848;9.620;2022-08-19T00:12:34;99090.47;;;23.58;54.54
61742;BME280;47650;49.848;9.620;2022-08-19T00:15:00;99078.97;;;23.51;54.61
61742;BME280;47650;49.848;9.620;2022-08-19T00:17:25;99076.38;;;23.56;54.85
61742;BME280;47650;49.848;9.620;2022-08-19T00:19:51;99077.50;;;23.60;54.68
61742;BME280;47650;49.848;9.620;2022-08-19T00:22:16;99045.38;;;23.46;54.88
61742;BME280;47650;49.848;9.620;2022-08-19T00:24:46;99068.34;;;23.61;54.62
61742;BME280;47650;49.848;9.620;2022-08-19T00:27:12;99060.47;;;23.59;54.66
61742;BME280;47650;49.848;9.620;2022-08-19T00:29:39;99045.03;;;23.43;54.64
61742;BME280;47650;49.848;9.620;2022-08-19T00:32:05;99068.91;;;23.63;54.82
61742;BME280;47650;49.848;9.620;2022-08-19T00:34:32;99065.22;;;23.52;54.94
61742;BME280;47650;49.848;9.620;2022-08-19T00:36:58;99053.50;;;23.46;55.15
61742;BME280;47650;49.848;9.620;2022-08-19T00:39:23;99056.19;;;23.46;55.59
61742;BME280;47650;49.848;9.620;2022-08-19T00:41:51;99049.59;;;23.42;55.82
61742;BME280;47650;49.848;9.620;2022-08-19T00:44:21;99045.09;;;23.31;56.09
61742;BME280;47650;49.848;9.620;2022-08-19T00:46:49;99025.13;;;23.20;55.73
61742;BME280;47650;49.848;9.620;2022-08-19T00:49:20;99049.41;;;23.32;55.80
61742;BME280;47650;49.848;9.620;2022-08-19T00:51:50;99024.13;;;23.09;56.09
61742;BME280;47650;49.848;9.620;2022-08-19T00:54:17;99037.25;;;23.18;56.33
61742;BME280;47650;49.848;9.620;2022-08-19T00:56:43;99040.22;;;23.16;56.28
61742;BME280;47650;49.848;9.620;2022-08-19T00:59:09;99034.47;;;23.13;55.98
61742;BME280;47650;49.848;9.620;2022-08-19T01:01:39;99039.31;;;23.11;56.12
61742;BME280;47650;49.848;9.620;2022-08-19T01:04:05;99040.47;;;23.03;56.57
61742;BME280;47650;49.848;9.620;2022-08-19T01:06:31;99039.53;;;22.97;56.87
61742;BME280;47650;49.848;9.620;2022-08-19T01:08:58;99055.44;;;22.82;57.54
61742;BME280;47650;49.848;9.620;2022-08-19T01:11:24;99029.78;;;22.56;58.33
61742;BME280;47650;49.848;9.620;2022-08-19T01:13:52;99061.81;;;22.76;58.26
61742;BME280;47650;49.848;9.620;2022-08-19T01:16:20;99064.63;;;22.81;57.66
61742;BME280;47650;49.848;9.620;2022-08-19T01:18:51;99056.44;;;22.76;57.93
61742;BME280;47650;49.848;9.620;2022-08-19T01:21:32;99046.09;;;22.72;58.06
61742;BME280;47650;49.848;9.620;2022-08-19T01:23:59;99036.56;;;22.70;57.68
61742;BME280;47650;49.848;9.620;2022-08-19T01:26:26;99029.19;;;22.65;57.90
61742;BME280;47650;49.848;9.620;2022-08-19T01:28:56;99026.50;;;22.53;57.83
61742;BME280;47650;49.848;9.620;2022-08-19T01:31:25;99018.06;;;22.38;58.28
61742;BME280;47650;49.848;9.620;2022-08-19T01:33:52;99052.94;;;22.40;58.37
61742;BME280;47650;49.848;9.620;2022-08-19T01:36:31;99049.66;;;22.38;59.02
61742;BME280;47650;49.848;9.620;2022-08-19T01:38:57;99056.69;;;22.39;58.87
61742;BME280;47650;49.848;9.620;2022-08-19T01:41:24;99047.41;;;22.23;59.12
61742;BME280;47650;49.848;9.620;2022-08-19T01:43:51;99056.47;;;22.28;59.46
61742;BME280;47650;49.848;9.620;2022-08-19T01:46:18;99067.03;;;22.30;59.47
61742;BME280;47650;49.848;9.620;2022-08-19T01:48:45;99068.34;;;22.27;58.88
61742;BME280;47650;49.848;9.620;2022-08-19T01:51:11;99064.19;;;22.13;58.91
61742;BME280;47650;49.848;9.620;2022-08-19T01:53:37;99091.22;;;22.37;59.30
61742;BME280;47650;49.848;9.620;2022-08-19T01:56:03;99059.03;;;22.23;58.98
61742;BME280;47650;49.848;9.620;2022-08-19T01:58:36;99098.03;;;22.51;58.54
61742;BME280;47650;49.848;9.620;2022-08-19T02:01:05;99087.09;;;22.58;58.62
61742;BME280;47650;49.848;9.620;2022-08-19T02:03:32;99079.84;;;22.58;58.55
61742;BME280;47650;49.848;9.620;2022-08-19T02:06:01;99060.59;;;22.43;58.62
61742;BME280;47650;49.848;9.620;2022-08-19T02:08:29;99079.22;;;22.56;58.47
61742;BME280;47650;49.848;9.620;2022-08-19T02:14:17;99087.59;;;22.31;59.18
61742;BME280;47650;49.848;9.620;2022-08-19T02:16:42;99082.84;;;22.26;58.85
61742;BME280;47650;49.848;9.620;2022-08-19T02:19:07;99088.25;;;22.03;60.36
61742;BME280;47650;49.848;9.620;2022-08-19T02:21:33;99084.50;;;22.04;60.41
61742;BME280;47650;49.848;9.620;2022-08-19T02:23:59;99042.19;;;21.62;60.78
61742;BME280;47650;49.848;9.620;2022-08-19T02:26:24;99063.34;;;21.77;60.88
61742;BME280;47650;49.848;9.620;2022-08-19T02:28:52;99067.53;;;21.73;61.80
61742;BME280;47650;49.848;9.620;2022-08-19T02:31:20;99071.09;;;21.73;61.50
61742;BME280;47650;49.848;9.620;2022-08-19T02:33:46;99077.16;;;21.69;61.56
61742;BME280;47650;49.848;9.620;2022-08-19T02:36:13;99082.28;;;21.58;62.14
61742;BME280;47650;49.848;9.620;2022-08-19T02:38:39;99083.44;;;21.51;62.19
61742;BME280;47650;49.848;9.620;2022-08-19T02:41:13;99097.53;;;21.53;61.97
61742;BME280;47650;49.848;9.620;2022-08-19T02:43:39;99081.34;;;21.34;62.46
61742;BME280;47650;49.848;9.620;2022-08-19T02:46:20;99091.31;;;21.34;62.93
61742;BME280;47650;49.848;9.620;2022-08-19T02:48:57;99095.16;;;21.26;63.57
61742;BME280;47650;49.848;9.620;2022-08-19T02:51:31;99088.50;;;21.29;63.31
61742;BME280;47650;49.848;9.620;2022-08-19T02:53:58;99062.59;;;21.09;63.24
61742;BME280;47650;49.848;9.620;2022-08-19T02:56:25;99084.22;;;21.21;63.85
61742;BME280;47650;49.848;9.620;2022-08-19T02:58:51;99094.22;;;21.02;64.16
61742;BME280;47650;49.848;9.620;2022-08-19T03:01:30;99100.63;;;21.19;63.76
61742;BME280;47650;49.848;9.620;2022-08-19T03:03:57;99103.22;;;21.26;63.23
61742;BME280;47650;49.848;9.620;2022-08-19T03:06:24;99112.31;;;21.32;63.27
61742;BME280;47650;49.848;9.620;2022-08-19T03:08:57;99047.81;;;20.81;63.36
61742;BME280;47650;49.848;9.620;2022-08-19T03:11:29;99114.06;;;21.56;63.07
61742;BME280;47650;49.848;9.620;2022-08-19T03:13:56;99097.94;;;21.68;62.07
61742;BME280;47650;49.848;9.620;2022-08-19T03:16:24;99087.28;;;21.73;62.10
61742;BME280;47650;49.848;9.620;2022-08-19T03:18:52;99100.75;;;21.73;62.17
61742;BME280;47650;49.848;9.620;2022-08-19T03:21:22;99104.03;;;21.75;62.13
61742;BME280;47650;49.848;9.620;2022-08-19T03:23:54;99096.84;;;21.69;62.17
61742;BME280;47650;49.848;9.620;2022-08-19T03:26:19;99097.84;;;21.87;61.95
61742;BME280;47650;49.848;9.620;2022-08-19T03:28:46;99102.09;;;21.94;61.36
61742;BME280;47650;49.848;9.620;2022-08-19T03:31:16;99094.72;;;22.13;60.70
61742;BME280;47650;49.848;9.620;2022-08-19T03:33:43;99093.41;;;22.16;60.53
61742;BME280;47650;49.848;9.620;2022-08-19T03:36:11;99084.28;;;22.17;60.13
61742;BME280;47650;49.848;9.620;2022-08-19T03:38:44;99094.03;;;22.30;60.31
61742;BME280;47650;49.848;9.620;2022-08-19T03:41:15;99055.50;;;22.11;60.22
61742;BME280;47650;49.848;9.620;2022-08-19T03:43:42;99096.16;;;22.40;59.76
61742;BME280;47650;49.848;9.620;2022-08-19T03:46:12;99093.00;;;22.31;59.63
61742;BME280;47650;49.848;9.620;2022-08-19T03:48:39;99104.16;;;22.34;59.84
61742;BME280;47650;49.848;9.620;2022-08-19T03:51:06;99096.63;;;22.37;59.64
61742;BME280;47650;49.848;9.620;2022-08-19T03:53:34;99102.84;;;22.37;59.44
61742;BME280;47650;49.848;9.620;2022-08-19T03:56:00;99105.44;;;22.44;59.45
61742;BME280;47650;49.848;9.620;2022-08-19T03:58:28;99104.97;;;22.47;59.49
61742;BME280;47650;49.848;9.620;2022-08-19T04:00:55;99057.63;;;22.21;59.55
61742;BME280;47650;49.848;9.620;2022-08-19T04:03:21;99039.88;;;22.13;59.31
61742;BME280;47650;49.848;9.620;2022-08-19T04:05:47;99091.47;;;22.47;59.33
61742;BME280;47650;49.848;9.620;2022-08-19T04:08:15;99075.97;;;22.30;60.03
61742;BME280;47650;49.848;9.620;2022-08-19T04:10:47;99091.09;;;22.31;60.09
61742;BME280;47650;49.848;9.620;2022-08-19T04:13:17;99086.28;;;22.33;60.07
61742;BME280;47650;49.848;9.620;2022-08-19T04:15:44;99084.19;;;22.36;59.67
61742;BME280;47650;49.848;9.620;2022-08-19T04:18:11;99084.09;;;22.30;59.95
61742;BME280;47650;49.848;9.620;2022-08-19T04:20:44;99084.31;;;22.29;59.96
61742;BME280;47650;49.848;9.620;2022-08-19T04:23:10;99081.84;;;22.27;60.19
61742;BME280;47650;49.848;9.620;2022-08-19T04:25:39;99077.59;;;22.31;59.82
61742;BME280;47650;49.848;9.620;2022-08-19T04:28:06;99084.63;;;22.21;60.10
61742;BME280;47650;49.848;9.620;2022-08-19T04:30:37;99075.22;;;22.00;60.71
61742;BME280;47650;49.848;9.620;2022-08-19T04:33:04;99061.28;;;22.03;60.21
61742;BME280;47650;49.848;9.620;2022-08-19T04:35:35;99091.63;;;21.86;61.35
61742;BME280;47650;49.848;9.620;2022-08-19T04:38:01;99100.00;;;22.20;60.06
61742;BME280;47650;49.848;9.620;2022-08-19T04:40:26;99095.50;;;22.02;60.86
61742;BME280;47650;49.848;9.620;2022-08-19T04:43:23;99097.59;;;22.30;59.35
61742;BME280;47650;49.848;9.620;2022-08-19T04:45:49;99105.91;;;22.41;59.48
61742;BME280;47650;49.848;9.620;2022-08-19T04:48:15;99108.47;;;22.47;59.19
61742;BME280;47650;49.848;9.620;2022-08-19T04:50:43;99112.38;;;22.51;58.88
61742;BME280;47650;49.848;9.620;2022-08-19T04:53:09;99107.56;;;22.42;59.02
61742;BME280;47650;49.848;9.620;2022-08-19T04:55:34;99114.94;;;22.34;59.33
61742;BME280;47650;49.848;9.620;2022-08-19T04:58:03;99112.59;;;22.50;59.00
61742;BME280;47650;49.848;9.620;2022-08-19T05:00:28;99116.13;;;22.62;58.61
61742;BME280;47650;49.848;9.620;2022-08-19T05:02:54;99127.25;;;22.78;58.92
61742;BME280;47650;49.848;9.620;2022-08-19T05:05:19;99126.19;;;22.79;58.59
61742;BME280;47650;49.848;9.620;2022-08-19T05:07:45;99123.59;;;22.84;57.95
61742;BME280;47650;49.848;9.620;2022-08-19T05:10:11;99100.00;;;22.79;57.92
61742;BME280;47650;49.848;9.620;2022-08-19T05:12:37;99126.16;;;23.02;57.79
61742;BME280;47650;49.848;9.620;2022-08-19T05:15:04;99128.41;;;23.05;57.73
61742;BME280;47650;49.848;9.620;2022-08-19T05:17:30;99129.00;;;23.07;57.20
61742;BME280;47650;49.848;9.620;2022-08-19T05:19:56;99136.28;;;23.19;56.98
61742;BME280;47650;49.848;9.620;2022-08-19T05:22:42;99116.69;;;22.88;57.46
61742;BME280;47650;49.848;9.620;2022-08-19T05:25:11;99143.19;;;23.15;57.53
61742;BME280;47650;49.848;9.620;2022-08-19T05:27:37;99144.50;;;23.24;56.86
61742;BME280;47650;49.848;9.620;2022-08-19T05:30:03;99149.94;;;23.41;56.69
61742;BME280;47650;49.848;9.620;2022-08-19T05:32:30;99115.88;;;23.28;56.60
61742;BME280;47650;49.848;9.620;2022-08-19T05:34:55;99122.66;;;23.42;56.38
61742;BME280;47650;49.848;9.620;2022-08-19T05:37:21;99142.78;;;23.63;55.83
61742;BME280;47650;49.848;9.620;2022-08-19T05:39:47;99148.47;;;23.91;55.31
61742;BME280;47650;49.848;9.620;2022-08-19T05:42:14;99147.47;;;23.11;57.27
61742;BME280;47650;49.848;9.620;2022-08-19T05:47:11;99158.25;;;23.51;56.52
61742;BME280;47650;49.848;9.620;2022-08-19T05:49:37;99126.16;;;23.02;57.28
61742;BME280;47650;49.848;9.620;2022-08-19T05:52:08;99145.59;;;23.40;56.41
61742;BME280;47650;49.848;9.620;2022-08-19T05:54:37;99168.56;;;23.66;56.13
61742;BME280;47650;49.848;9.620;2022-08-19T05:57:11;99163.63;;;23.63;55.40
61742;BME280;47650;49.848;9.620;2022-08-19T05:59:45;99167.31;;;23.86;55.47
61742;BME280;47650;49.848;9.620;2022-08-19T06:02:13;99166.34;;;23.92;54.94
61742;BME280;47650;49.848;9.620;2022-08-19T06:04:39;99177.03;;;24.15;54.70
61742;BME280;47650;49.848;9.620;2022-08-19T06:07:08;99184.38;;;23.86;55.60
61742;BME280;47650;49.848;9.620;2022-08-19T06:09:34;99182.78;;;24.36;54.52
61742;BME280;47650;49.848;9.620;2022-08-19T06:12:00;99188.97;;;23.86;55.42
61742;BME280;47650;49.848;9.620;2022-08-19T06:14:29;99186.44;;;24.42;54.34
61742;BME280;47650;49.848;9.620;2022-08-19T06:16:56;99183.94;;;24.74;52.97
61742;BME280;47650;49.848;9.620;2022-08-19T06:19:23;99145.31;;;23.82;54.56
61742;BME280;47650;49.848;9.620;2022-08-19T06:22:04;99171.94;;;24.53;53.94
61742;BME280;47650;49.848;9.620;2022-08-19T06:24:42;99152.28;;;24.57;53.15
61742;BME280;47650;49.848;9.620;2022-08-19T06:27:16;99187.25;;;24.42;53.68
61742;BME280;47650;49.848;9.620;2022-08-19T06:29:51;99186.88;;;24.05;55.16
61742;BME280;47650;49.848;9.620;2022-08-19T06:32:18;99186.91;;;24.38;54.53
61742;BME280;47650;49.848;9.620;2022-08-19T06:34:44;99190.22;;;23.66;56.26
61742;BME280;47650;49.848;9.620;2022-08-19T06:37:31;99195.34;;;23.79;56.18
61742;BME280;47650;49.848;9.620;2022-08-19T06:39:57;99183.91;;;23.77;56.25
61742;BME280;47650;49.848;9.620;2022-08-19T06:42:28;99196.16;;;24.26;54.67
61742;BME280;47650;49.848;9.620;2022-08-19T06:44:55;99162.84;;;24.25;54.34
61742;BME280;47650;49.848;9.620;2022-08-19T06:47:21;99190.13;;;24.69;54.21
61742;BME280;47650;49.848;9.620;2022-08-19T06:49:59;99189.53;;;24.50;54.54
61742;BME280;47650;49.848;9.620;2022-08-19T06:52:29;99203.09;;;24.50;54.97
61742;BME280;47650;49.848;9.620;2022-08-19T06:54:57;99199.22;;;24.97;53.61
61742;BME280;47650;49.848;9.620;2022-08-19T06:57:23;99198.22;;;24.86;53.52
61742;BME280;47650;49.848;9.620;2022-08-19T06:59:49;99193.88;;;24.51;54.33
61742;BME280;47650;49.848;9.620;2022-08-19T07:02:15;99203.66;;;24.52;54.79
61742;BME280;47650;49.848;9.620;2022-08-19T07:04:40;99208.19;;;24.64;54.96
61742;BME280;47650;49.848;9.620;2022-08-19T07:07:08;99213.94;;;24.67;54.64
61742;BME280;47650;49.848;9.620;2022-08-19T07:09:36;99184.09;;;24.84;53.95
61742;BME280;47650;49.848;9.620;2022-08-19T07:12:06;99220.47;;;25.44;52.46
61742;BME280;47650;49.848;9.620;2022-08-19T07:14:43;99204.63;;;25.58;51.77
61742;BME280;47650;49.848;9.620;2022-08-19T07:17:16;99211.22;;;25.67;51.56
61742;BME280;47650;49.848;9.620;2022-08-19T07:19:43;99222.50;;;25.54;52.36
61742;BME280;47650;49.848;9.620;2022-08-19T07:22:08;99214.06;;;25.78;51.22
61742;BME280;47650;49.848;9.620;2022-08-19T07:24:46;99191.66;;;26.15;51.00
61742;BME280;47650;49.848;9.620;2022-08-19T07:27:14;99218.63;;;25.72;51.73
61742;BME280;47650;49.848;9.620;2022-08-19T07:29:41;99222.81;;;25.19;53.11
61742;BME280;47650;49.848;9.620;2022-08-19T07:32:07;99193.13;;;25.51;51.95
61742;BME280;47650;49.848;9.620;2022-08-19T07:34:34;99222.41;;;25.10;53.66
61742;BME280;47650;49.848;9.620;2022-08-19T07:37:04;99220.09;;;25.85;51.52
61742;BME280;47650;49.848;9.620;2022-08-19T07:39:32;99200.09;;;25.69;52.49
61742;BME280;47650;49.848;9.620;2022-08-19T07:42:01;99198.63;;;26.38;50.52
61742;BME280;47650;49.848;9.620;2022-08-19T07:44:27;99207.94;;;26.79;49.23
61742;BME280;47650;49.848;9.620;2022-08-19T07:46:59;99205.28;;;27.37;47.42
61742;BME280;47650;49.848;9.620;2022-08-19T07:49:26;99205.31;;;27.53;47.16
61742;BME280;47650;49.848;9.620;2022-08-19T07:51:59;99205.22;;;28.01;46.46
61742;BME280;47650;49.848;9.620;2022-08-19T07:54:30;99203.72;;;27.57;46.85
61742;BME280;47650;49.848;9.620;2022-08-19T07:56:59;99209.59;;;28.07;46.64
61742;BME280;47650;49.848;9.620;2022-08-19T07:59:27;99209.88;;;28.21;45.25
61742;BME280;47650;49.848;9.620;2022-08-19T08:01:55;99206.94;;;27.49;47.00
61742;BME280;47650;49.848;9.620;2022-08-19T08:04:29;99204.38;;;27.95;46.21
61742;BME280;47650;49.848;9.620;2022-08-19T08:07:26;99208.78;;;28.42;44.47
61742;BME280;47650;49.848;9.620;2022-08-19T08:10:10;99209.03;;;28.20;44.97
61742;BME280;47650;49.848;9.620;2022-08-19T08:12:40;99206.31;;;28.36;44.32
61742;BME280;47650;49.848;9.620;2022-08-19T08:15:14;99190.78;;;28.57;43.52
61742;BME280;47650;49.848;9.620;2022-08-19T08:17:44;99195.63;;;29.81;41.56
61742;BME280;47650;49.848;9.620;2022-08-19T08:20:11;99206.88;;;28.07;44.46
61742;BME280;47650;49.848;9.620;2022-08-19T08:22:36;99201.38;;;28.99;42.78
61742;BME280;47650;49.848;9.620;2022-08-19T08:25:22;99164.34;;;28.57;43.33
61742;BME280;47650;49.848;9.620;2022-08-19T08:27:49;99200.25;;;29.11;42.20
61742;BME280;47650;49.848;9.620;2022-08-19T08:30:19;99206.25;;;29.07;42.01
61742;BME280;47650;49.848;9.620;2022-08-19T08:32:47;99212.31;;;28.43;43.26
61742;BME280;47650;49.848;9.620;2022-08-19T08:35:17;99214.47;;;28.00;44.41
61742;BME280;47650;49.848;9.620;2022-08-19T08:37:44;99218.88;;;28.37;43.44
61742;BME280;47650;49.848;9.620;2022-08-19T08:40:57;99221.31;;;28.12;43.81
61742;BME280;47650;49.848;9.620;2022-08-19T08:43:27;99226.22;;;28.10;43.38
61742;BME280;47650;49.848;9.620;2022-08-19T08:46:03;99223.78;;;28.24;43.83
61742;BME280;47650;49.848;9.620;2022-08-19T08:51:42;99238.53;;;28.64;42.31
61742;BME280;47650;49.848;9.620;2022-08-19T08:54:12;99229.44;;;29.05;41.31
61742;BME280;47650;49.848;9.620;2022-08-19T08:56:39;99203.97;;;29.46;40.18
61742;BME280;47650;49.848;9.620;2022-08-19T08:59:12;99227.38;;;29.62;40.02
61742;BME280;47650;49.848;9.620;2022-08-19T09:01:50;99225.19;;;30.83;37.48
61742;BME280;47650;49.848;9.620;2022-08-19T09:04:15;99221.09;;;30.11;37.22
61742;BME280;47650;49.848;9.620;2022-08-19T09:09:34;99223.78;;;30.22;37.09
61742;BME280;47650;49.848;9.620;2022-08-19T09:12:13;99235.06;;;30.49;35.89
61742;BME280;47650;49.848;9.620;2022-08-19T09:14:52;99220.50;;;31.37;34.35
61742;BME280;47650;49.848;9.620;2022-08-19T09:17:21;99215.38;;;31.54;33.68
61742;BME280;47650;49.848;9.620;2022-08-19T09:22:42;99214.81;;;31.09;34.39
61742;BME280;47650;49.848;9.620;2022-08-19T09:25:13;99218.41;;;30.46;35.82
61742;BME280;47650;49.848;9.620;2022-08-19T09:27:41;99227.47;;;30.41;35.74
61742;BME280;47650;49.848;9.620;2022-08-19T09:30:10;99231.72;;;30.58;35.20
61742;BME280;47650;49.848;9.620;2022-08-19T09:32:36;99224.16;;;30.05;36.71
61742;BME280;47650;49.848;9.620;2022-08-19T09:35:03;99232.38;;;29.39;38.12
61742;BME280;47650;49.848;9.620;2022-08-19T09:37:28;99230.19;;;29.36;38.62
61742;BME280;47650;49.848;9.620;2022-08-19T09:39:54;99233.06;;;28.59;39.77
61742;BME280;47650;49.848;9.620;2022-08-19T09:42:20;99234.69;;;28.29;40.39
61742;BME280;47650;49.848;9.620;2022-08-19T09:44:45;99238.50;;;28.49;40.70
61742;BME280;47650;49.848;9.620;2022-08-19T09:47:12;99231.69;;;28.62;40.33
61742;BME280;47650;49.848;9.620;2022-08-19T09:49:39;99199.78;;;28.52;40.40
61742;BME280;47650;49.848;9.620;2022-08-19T09:52:10;99224.88;;;28.54;40.67
61742;BME280;47650;49.848;9.620;2022-08-19T09:54:37;99247.25;;;28.61;40.88
61742;BME280;47650;49.848;9.620;2022-08-19T09:57:05;99245.31;;;28.46;40.88
61742;BME280;47650;49.848;9.620;2022-08-19T09:59:30;99243.38;;;28.16;41.56
61742;BME280;47650;49.848;9.620;2022-08-19T10:01:56;99206.34;;;28.66;40.51
61742;BME280;47650;49.848;9.620;2022-08-19T10:04:22;99226.50;;;28.86;40.55
61742;BME280;47650;49.848;9.620;2022-08-19T10:06:49;99232.41;;;29.34;39.02
61742;BME280;47650;49.848;9.620;2022-08-19T10:09:17;99221.72;;;29.98;38.00
61742;BME280;47650;49.848;9.620;2022-08-19T10:11:44;99207.00;;;30.39;37.08
61742;BME280;47650;49.848;9.620;2022-08-19T10:14:15;99195.00;;;31.17;35.60
61742;BME280;47650;49.848;9.620;2022-08-19T10:16:42;99198.94;;;31.54;34.63
61742;BME280;47650;49.848;9.620;2022-08-19T10:19:08;99199.09;;;32.20;33.84
61742;BME280;47650;49.848;9.620;2022-08-19T10:21:35;99184.75;;;31.04;35.37
61742;BME280;47650;49.848;9.620;2022-08-19T10:24:03;99207.66;;;29.70;37.19
61742;BME280;47650;49.848;9.620;2022-08-19T10:26:32;99210.50;;;30.44;36.05
61742;BME280;47650;49.848;9.620;2022-08-19T10:28:58;99220.22;;;28.96;38.00
61742;BME280;47650;49.848;9.620;2022-08-19T10:31:27;99226.50;;;28.65;38.68
61742;BME280;47650;49.848;9.620;2022-08-19T10:33:53;99223.47;;;29.03;38.05
61742;BME280;47650;49.848;9.620;2022-08-19T10:36:30;99216.91;;;29.74;36.78
61742;BME280;47650;49.848;9.620;2022-08-19T10:38:58;99223.16;;;29.15;37.86
61742;BME280;47650;49.848;9.620;2022-08-19T10:41:26;99204.66;;;28.86;37.93
61742;BME280;47650;49.848;9.620;2022-08-19T10:43:55;99219.19;;;29.57;36.47
61742;BME280;47650;49.848;9.620;2022-08-19T10:46:24;99213.66;;;29.72;36.05
61742;BME280;47650;49.848;9.620;2022-08-19T10:48:50;99222.31;;;29.35;36.10
61742;BME280;47650;49.848;9.620;2022-08-19T10:51:16;99225.34;;;29.23;36.77
61742;BME280;47650;49.848;9.620;2022-08-19T10:54:00;99220.50;;;28.89;37.25
61742;BME280;47650;49.848;9.620;2022-08-19T10:56:27;99221.69;;;29.48;36.50
61742;BME280;47650;49.848;9.620;2022-08-19T10:59:13;99209.47;;;29.35;36.08
61742;BME280;47650;49.848;9.620;2022-08-19T11:01:40;99211.81;;;29.62;35.78
61742;BME280;47650;49.848;9.620;2022-08-19T11:04:05;99217.03;;;29.59;35.32
61742;BME280;47650;49.848;9.620;2022-08-19T11:06:34;99215.31;;;29.78;35.92
61742;BME280;47650;49.848;9.620;2022-08-19T11:08:59;99212.66;;;29.58;35.70
61742;BME280;47650;49.848;9.620;2022-08-19T11:11:26;99214.31;;;29.54;35.56
61742;BME280;47650;49.848;9.620;2022-08-19T11:13:51;99187.00;;;29.98;35.13
61742;BME280;47650;49.848;9.620;2022-08-19T11:16:20;99214.28;;;30.09;35.16
61742;BME280;47650;49.848;9.620;2022-08-19T11:18:50;99208.16;;;30.62;34.55
61742;BME280;47650;49.848;9.620;2022-08-19T11:21:19;99204.31;;;31.16;34.00
61742;BME280;47650;49.848;9.620;2022-08-19T11:23:46;99190.59;;;30.63;34.37
61742;BME280;47650;49.848;9.620;2022-08-19T11:26:13;99191.94;;;31.43;33.48
61742;BME280;47650;49.848;9.620;2022-08-19T11:28:39;99186.13;;;30.08;34.66
61742;BME280;47650;49.848;9.620;2022-08-19T11:31:10;99151.38;;;31.45;33.01
61742;BME280;47650;49.848;9.620;2022-08-19T11:33:37;99178.34;;;32.79;31.21
61742;BME280;47650;49.848;9.620;2022-08-19T11:36:03;99179.06;;;33.54;29.66
61742;BME280;47650;49.848;9.620;2022-08-19T11:38:28;99176.41;;;31.14;32.36
61742;BME280;47650;49.848;9.620;2022-08-19T11:40:57;99184.88;;;30.88;32.82
61742;BME280;47650;49.848;9.620;2022-08-19T11:43:23;99185.78;;;31.32;31.67
61742;BME280;47650;49.848;9.620;2022-08-19T11:45:51;99179.97;;;33.08;29.29
61742;BME280;47650;49.848;9.620;2022-08-19T11:48:16;99185.13;;;33.65;28.17
61742;BME280;47650;49.848;9.620;2022-08-19T11:50:42;99147.13;;;33.03;28.38
61742;BME280;47650;49.848;9.620;2022-08-19T11:53:09;99167.19;;;34.72;27.00
61742;BME280;47650;49.848;9.620;2022-08-19T11:55:57;99160.97;;;36.17;25.15
61742;BME280;47650;49.848;9.620;2022-08-19T11:58:22;99167.25;;;33.68;27.86
61742;BME280;47650;49.848;9.620;2022-08-19T12:00:48;99161.13;;;35.68;25.37
61742;BME280;47650;49.848;9.620;2022-08-19T12:03:15;99150.22;;;34.79;26.51
61742;BME280;47650;49.848;9.620;2022-08-19T12:05:41;99157.94;;;35.17;25.69
61742;BME280;47650;49.848;9.620;2022-08-19T12:08:07;99159.00;;;34.58;26.48
61742;BME280;47650;49.848;9.620;2022-08-19T12:10:33;99165.56;;;34.03;27.16
61742;BME280;47650;49.848;9.620;2022-08-19T12:13:00;99143.91;;;34.78;26.25
61742;BME280;47650;49.848;9.620;2022-08-19T12:15:27;99166.59;;;33.34;27.88
61742;BME280;47650;49.848;9.620;2022-08-19T12:17:57;99157.50;;;34.07;26.07
61742;BME280;47650;49.848;9.620;2022-08-19T12:20:23;99151.53;;;33.18;27.36
61742;BME280;47650;49.848;9.620;2022-08-19T12:22:49;99151.75;;;33.95;26.73
61742;BME280;47650;49.848;9.620;2022-08-19T12:25:15;99153.22;;;33.56;26.49
61742;BME280;47650;49.848;9.620;2022-08-19T12:27:41;99163.69;;;33.12;27.12
61742;BME280;47650;49.848;9.620;2022-08-19T12:30:09;99162.28;;;34.38;25.86
61742;BME280;47650;49.848;9.620;2022-08-19T12:32:35;99149.97;;;35.07;25.19
61742;BME280;47650;49.848;9.620;2022-08-19T12:35:01;99134.44;;;35.19;24.49
61742;BME280;47650;49.848;9.620;2022-08-19T12:37:27;99149.56;;;35.22;24.91
61742;BME280;47650;49.848;9.620;2022-08-19T12:39:52;99152.16;;;35.27;24.82
61742;BME280;47650;49.848;9.620;2022-08-19T12:42:18;99153.59;;;35.25;24.72
61742;BME280;47650;49.848;9.620;2022-08-19T12:44:43;99154.69;;;35.06;24.53
61742;BME280;47650;49.848;9.620;2022-08-19T12:47:12;99157.25;;;33.58;26.72
61742;BME280;47650;49.848;9.620;2022-08-19T12:49:39;99136.03;;;34.09;26.41
61742;BME280;47650;49.848;9.620;2022-08-19T12:52:08;99138.47;;;34.64;25.74
61742;BME280;47650;49.848;9.620;2022-08-19T12:54:35;99134.88;;;34.95;25.40
61742;BME280;47650;49.848;9.620;2022-08-19T12:57:00;99138.88;;;34.49;25.95
61742;BME280;47650;49.848;9.620;2022-08-19T12:59:30;99152.34;;;34.82;25.76
61742;BME280;47650;49.848;9.620;2022-08-19T13:01:56;99160.66;;;34.99;25.25
61742;BME280;47650;49.848;9.620;2022-08-19T13:04:22;99165.22;;;34.41;25.99
61742;BME280;47650;49.848;9.620;2022-08-19T13:06:49;99167.59;;;34.12;26.54
61742;BME280;47650;49.848;9.620;2022-08-19T13:09:15;99180.84;;;33.23;27.49
61742;BME280;47650;49.848;9.620;2022-08-19T13:11:43;99179.41;;;33.25;27.48
61742;BME280;47650;49.848;9.620;2022-08-19T13:14:08;99180.72;;;33.42;27.22
61742;BME280;47650;49.848;9.620;2022-08-19T13:16:36;99177.19;;;33.64;28.08
61742;BME280;47650;49.848;9.620;2022-08-19T13:19:02;99165.66;;;33.25;27.70
61742;BME280;47650;49.848;9.620;2022-08-19T13:21:29;99147.41;;;33.57;27.67